Time;durP1;ratioP1;P1;durP2;ratioP2;P2;SDS_P1;SDS_P2;PMS_P1;PMS_P2;Temp;Humidity;BMP_temperature;BMP_pressure;BME280_temperature;BME280_humidity;BME280_pressure;Samples;Min_cycle;Max_cycle;Signal;HPM_P1;HPM_P2
2023/07/03 00:00:14;;;;;;;14.80;5.10;;;;;;;15.26;100.00;101248.00;4987147;28;20437;-74
2023/07/03 00:02:40;;;;;;;11.37;4.20;;;;;;;15.56;100.00;101271.69;4976845;28;20200;-74
2023/07/03 00:05:08;;;;;;;20.87;5.13;;;;;;;15.12;100.00;101225.66;4976635;28;21242;-74
2023/07/03 00:07:34;;;;;;;14.00;4.90;;;;;;;15.44;100.00;101285.09;4976280;28;20202;-74
2023/07/03 00:10:00;;;;;;;15.87;5.23;;;;;;;15.01;100.00;101185.84;4976010;28;20452;-74
2023/07/03 00:12:25;;;;;;;18.53;5.67;;;;;;;15.52;100.00;101262.38;4976104;28;20968;-74
2023/07/03 00:14:50;;;;;;;16.53;4.50;;;;;;;15.66;100.00;101309.88;4976520;28;20178;-74
2023/07/03 00:17:16;;;;;;;18.90;5.50;;;;;;;15.07;100.00;101219.25;4975893;28;20202;-74
2023/07/03 00:19:41;;;;;;;15.20;5.07;;;;;;;15.89;100.00;101340.94;4975960;28;20209;-74
2023/07/03 00:22:07;;;;;;;14.20;5.27;;;;;;;16.01;100.00;101345.38;4976264;28;20264;-74
2023/07/03 00:24:34;;;;;;;10.70;3.93;;;;;;;16.11;100.00;101349.44;4977976;28;20193;-75
2023/07/03 00:27:00;;;;;;;11.70;4.70;;;;;;;15.44;100.00;101238.31;4974902;28;20289;-74
2023/07/03 00:29:29;;;;;;;12.80;4.97;;;;;;;14.67;100.00;101152.88;4977813;28;20492;-74
2023/07/03 00:31:55;;;;;;;12.00;4.43;;;;;;;14.96;100.00;101201.09;4976046;28;21447;-74
2023/07/03 00:34:20;;;;;;;13.07;4.67;;;;;;;15.24;100.00;101238.47;4975493;28;20457;-74
2023/07/03 00:36:46;;;;;;;13.27;4.27;;;;;;;14.99;100.00;101200.66;4976493;28;20182;-75
2023/07/03 00:39:11;;;;;;;11.07;4.40;;;;;;;14.61;100.00;101139.41;4976789;28;20210;-74
2023/07/03 00:41:37;;;;;;;13.70;4.30;;;;;;;14.97;100.00;101181.94;4991427;28;20197;-74
2023/07/03 00:44:02;;;;;;;12.60;5.23;;;;;;;16.15;100.00;101358.78;4977730;28;20194;-74
2023/07/03 00:46:28;;;;;;;12.93;5.07;;;;;;;15.03;100.00;101210.78;4977190;28;20182;-74
2023/07/03 00:48:53;;;;;;;12.80;4.30;;;;;;;15.79;100.00;101317.06;4978147;28;20217;-74
2023/07/03 00:51:19;;;;;;;13.27;5.03;;;;;;;15.04;100.00;101176.47;4976694;28;20630;-74
2023/07/03 00:53:44;;;;;;;16.00;4.23;;;;;;;15.78;100.00;101321.66;4989959;28;20221;-74
2023/07/03 00:56:12;;;;;;;20.30;4.87;;;;;;;14.77;100.00;101148.84;4975833;28;20193;-75
2023/07/03 00:58:39;;;;;;;12.73;4.30;;;;;;;14.80;100.00;101172.72;4984643;28;20811;-75
2023/07/03 01:01:29;;;;;;;17.87;4.47;;;;;;;16.01;100.00;101339.97;4969939;28;20854;-74
2023/07/03 01:04:07;;;;;;;10.27;4.00;;;;;;;15.99;100.00;101344.75;4974856;28;20512;-75
2023/07/03 01:06:40;;;;;;;11.33;4.20;;;;;;;14.91;100.00;101207.13;4985528;28;20845;-74
2023/07/03 01:09:08;;;;;;;15.10;4.10;;;;;;;15.79;100.00;101322.47;4978130;28;20453;-75
2023/07/03 01:11:35;;;;;;;14.07;4.50;;;;;;;16.01;100.00;101339.97;4978007;28;21541;-75
2023/07/03 01:14:02;;;;;;;15.03;3.77;;;;;;;14.54;100.00;101119.75;4976921;28;20910;-74
2023/07/03 01:16:30;;;;;;;16.60;4.73;;;;;;;15.19;100.00;101241.00;4975641;28;20568;-75
2023/07/03 01:18:58;;;;;;;15.87;4.53;;;;;;;15.84;100.00;101332.66;4985952;28;20452;-75
2023/07/03 01:21:34;;;;;;;14.73;4.23;;;;;;;15.89;100.00;101325.53;4976597;28;20433;-75
2023/07/03 01:24:40;;;;;;;10.43;3.90;;;;;;;16.03;100.00;101327.06;4976892;28;20930;-74
2023/07/03 01:27:08;;;;;;;11.87;4.40;;;;;;;15.11;100.00;101207.00;4979733;28;20978;-74
2023/07/03 01:29:34;;;;;;;13.10;4.33;;;;;;;15.97;100.00;101343.34;4978275;28;20476;-74
2023/07/03 01:32:03;;;;;;;16.77;4.90;;;;;;;15.87;100.00;101335.72;4978147;28;20475;-74
2023/07/03 01:34:29;;;;;;;12.60;4.77;;;;;;;14.84;100.00;101163.13;4974194;28;20452;-74
2023/07/03 01:37:00;;;;;;;16.00;4.47;;;;;;;15.04;100.00;101174.63;4990167;28;20449;-74
2023/07/03 01:39:25;;;;;;;10.20;3.93;;;;;;;15.89;100.00;101306.59;4974416;28;20516;-73
2023/07/03 01:41:52;;;;;;;11.23;4.50;;;;;;;15.92;100.00;101305.31;4976711;28;20446;-75
2023/07/03 01:44:19;;;;;;;13.60;4.50;;;;;;;13.81;100.00;100963.72;4976945;28;20660;-75
2023/07/03 01:46:44;;;;;;;13.77;4.40;;;;;;;12.81;100.00;100787.25;4974064;28;20524;-74
2023/07/03 01:49:14;;;;;;;9.67;3.40;;;;;;;13.52;100.00;100968.66;4975429;28;20884;-74
2023/07/03 01:52:03;;;;;;;10.43;3.63;;;;;;;15.88;100.00;101318.47;4977509;28;20313;-74
2023/07/03 01:54:39;;;;;;;10.43;3.57;;;;;;;13.27;100.00;100920.06;4990183;28;20552;-74
2023/07/03 01:57:06;;;;;;;10.17;3.50;;;;;;;13.49;100.00;100972.59;4974519;28;21080;-75
2023/07/03 01:59:33;;;;;;;9.30;3.57;;;;;;;14.30;100.00;101124.84;4971393;28;21214;-75
2023/07/03 02:02:07;;;;;;;11.50;3.93;;;;;;;15.13;100.00;101197.63;4976701;28;20440;-74
2023/07/03 02:04:41;;;;;;;7.33;3.20;;;;;;;13.34;100.00;100940.56;4979130;28;22336;-75
2023/07/03 02:07:09;;;;;;;16.27;3.90;;;;;;;16.02;100.00;101375.97;4973925;28;20667;-75
2023/07/03 02:09:35;;;;;;;17.07;4.23;;;;;;;13.86;100.00;101025.94;4975933;28;20596;-74
2023/07/03 02:12:05;;;;;;;19.07;3.60;;;;;;;14.82;100.00;101155.25;4990275;28;20494;-74
2023/07/03 02:14:30;;;;;;;19.17;3.90;;;;;;;15.88;100.00;101295.97;4977533;28;20450;-75
2023/07/03 02:16:56;;;;;;;14.17;4.20;;;;;;;14.47;100.00;101071.19;4978735;28;20469;-75
2023/07/03 02:19:28;;;;;;;14.77;4.20;;;;;;;15.90;100.00;101285.78;4977660;28;20686;-74
2023/07/03 02:21:55;;;;;;;14.10;3.70;;;;;;;15.22;100.00;101194.66;4975656;28;20305;-75
2023/07/03 02:24:21;;;;;;;11.83;3.87;;;;;;;15.60;100.00;101232.34;4973062;28;20441;-74
2023/07/03 02:26:48;;;;;;;18.33;4.37;;;;;;;14.91;100.00;101145.84;4976319;28;20951;-76
2023/07/03 02:29:13;;;;;;;15.00;4.30;;;;;;;15.32;100.00;101213.88;4991108;28;20457;-75
2023/07/03 02:31:38;;;;;;;10.70;3.43;;;;;;;15.86;100.00;101285.41;4977394;28;20886;-74
2023/07/03 02:34:04;;;;;;;10.90;3.87;;;;;;;15.09;100.00;101158.56;4979108;28;20198;-75
2023/07/03 02:36:34;;;;;;;12.53;3.60;;;;;;;13.94;100.00;100963.63;4976923;28;20646;-74
2023/07/03 02:39:01;;;;;;;12.90;4.40;;;;;;;15.58;100.00;101254.19;4975778;28;20240;-74
2023/07/03 02:41:27;;;;;;;8.37;3.73;;;;;;;15.28;100.00;101199.16;4991776;28;20443;-74
2023/07/03 02:43:52;;;;;;;12.37;3.43;;;;;;;15.22;100.00;101187.38;4973663;28;20873;-74
2023/07/03 02:46:18;;;;;;;10.10;3.70;;;;;;;15.14;100.00;101177.66;4976686;28;20669;-74
2023/07/03 02:48:43;;;;;;;14.57;3.77;;;;;;;15.38;100.00;101248.94;4976326;28;20214;-74
2023/07/03 02:51:09;;;;;;;9.90;3.87;;;;;;;15.31;100.00;101231.97;4976114;28;20301;-74
2023/07/03 02:53:34;;;;;;;17.90;4.13;;;;;;;15.69;100.00;101300.53;4974068;28;20194;-74
2023/07/03 02:55:59;;;;;;;10.33;2.93;;;;;;;15.53;100.00;101286.47;4976382;28;20186;-76
2023/07/03 02:58:25;;;;;;;10.97;3.40;;;;;;;15.06;100.00;101204.13;4974735;28;20351;-74
2023/07/03 03:00:51;;;;;;;11.40;3.70;;;;;;;15.79;100.00;101330.59;4973692;28;20563;-74
2023/07/03 03:03:17;;;;;;;10.33;3.53;;;;;;;14.66;100.00;101189.00;4972534;28;20189;-74
2023/07/03 03:05:42;;;;;;;9.73;3.27;;;;;;;15.00;100.00;101238.22;4974680;28;20444;-74
2023/07/03 03:08:08;;;;;;;11.30;3.40;;;;;;;14.95;100.00;101215.63;4971499;28;20220;-74
2023/07/03 03:10:33;;;;;;;9.43;3.03;;;;;;;14.83;100.00;101227.13;4976020;28;20190;-74
2023/07/03 03:12:59;;;;;;;11.67;3.40;;;;;;;14.72;100.00;101203.50;4974156;28;20205;-75
2023/07/03 03:15:26;;;;;;;9.93;3.20;;;;;;;15.65;100.00;101302.81;4976528;28;20186;-74
2023/07/03 03:17:51;;;;;;;12.50;3.63;;;;;;;14.94;100.00;101214.78;4974944;28;20221;-74
2023/07/03 03:20:17;;;;;;;12.77;3.70;;;;;;;14.31;100.00;101083.31;4977547;28;20449;-74
2023/07/03 03:22:42;;;;;;;12.40;3.50;;;;;;;15.11;100.00;101228.59;4974887;28;20674;-74
2023/07/03 03:25:08;;;;;;;11.00;3.00;;;;;;;15.39;100.00;101252.50;4973669;28;20194;-74
2023/07/03 03:27:34;;;;;;;7.33;3.13;;;;;;;14.42;100.00;101108.78;4974151;28;20206;-73
2023/07/03 03:29:59;;;;;;;9.67;3.67;;;;;;;14.24;100.00;101096.03;4974152;28;20849;-74
2023/07/03 03:32:25;;;;;;;12.10;3.50;;;;;;;14.34;100.00;101099.06;4976285;28;20206;-74
2023/07/03 03:34:50;;;;;;;10.00;3.00;;;;;;;14.76;100.00;101202.03;4992810;28;20193;-74
2023/07/03 03:37:17;;;;;;;9.30;3.10;;;;;;;14.89;100.00;101247.84;4977195;28;20193;-74
2023/07/03 03:39:43;;;;;;;14.17;4.20;;;;;;;14.46;100.00;101204.44;4977882;28;20220;-74
2023/07/03 03:42:11;;;;;;;10.83;3.10;;;;;;;15.05;100.00;101286.22;4978436;28;20880;-74
2023/07/03 03:44:37;;;;;;;10.90;3.33;;;;;;;14.56;100.00;101223.75;4977480;28;20500;-75
2023/07/03 03:47:03;;;;;;;7.67;2.67;;;;;;;14.80;100.00;101283.44;4978717;28;20465;-75
2023/07/03 03:49:28;;;;;;;9.60;2.33;;;;;;;15.26;100.00;101353.41;4974677;28;20374;-75
2023/07/03 03:51:54;;;;;;;10.47;3.63;;;;;;;15.47;100.00;101397.38;4976722;28;21245;-74
2023/07/03 03:54:20;;;;;;;8.27;2.70;;;;;;;14.82;100.00;101301.09;4992686;28;20213;-78
2023/07/03 03:56:46;;;;;;;10.40;2.70;;;;;;;15.48;100.00;101394.47;4990613;28;20205;-75
2023/07/03 03:59:11;;;;;;;12.30;2.83;;;;;;;15.00;100.00;101313.88;4974967;28;20548;-74
2023/07/03 04:01:37;;;;;;;17.60;3.20;;;;;;;15.48;100.00;101389.06;4992434;28;21069;-75
2023/07/03 04:04:03;;;;;;;11.33;2.83;;;;;;;14.50;100.00;101245.34;4980519;28;20185;-74
2023/07/03 04:06:29;;;;;;;8.07;2.93;;;;;;;15.42;100.00;101383.66;4977291;28;20190;-74
2023/07/03 04:08:58;;;;;;;11.10;2.67;;;;;;;15.60;100.00;101410.81;4977248;28;20879;-75
2023/07/03 04:11:28;;;;;;;8.47;2.80;;;;;;;15.31;100.00;101377.91;4976299;28;20479;-74
2023/07/03 04:13:54;;;;;;;11.20;3.83;;;;;;;14.16;100.00;101191.53;4990550;28;20558;-74
2023/07/03 04:16:20;;;;;;;9.87;2.40;;;;;;;14.89;100.00;101322.66;4977791;28;21197;-75
2023/07/03 04:18:45;;;;;;;6.20;2.27;;;;;;;15.42;100.00;101400.75;4980086;28;20874;-75
2023/07/03 04:21:11;;;;;;;8.27;2.90;;;;;;;14.39;100.00;101255.78;4979407;28;20442;-74
2023/07/03 04:23:36;;;;;;;13.10;4.00;;;;;;;14.81;100.00;101302.16;4977079;28;20186;-74
2023/07/03 04:26:02;;;;;;;10.33;2.53;;;;;;;14.74;100.00;101295.09;4979332;28;20194;-78
2023/07/03 04:28:28;;;;;;;9.00;2.93;;;;;;;14.83;100.00;101310.84;4980307;28;20225;-74
2023/07/03 04:30:54;;;;;;;11.23;2.70;;;;;;;15.62;100.00;101429.50;4976283;28;21147;-75
2023/07/03 04:33:19;;;;;;;7.30;1.90;;;;;;;15.51;100.00;101417.53;4974026;28;20518;-75
2023/07/03 04:35:46;;;;;;;12.10;2.80;;;;;;;14.48;100.00;101276.06;4977125;28;20701;-75
2023/07/03 04:38:12;;;;;;;7.13;2.23;;;;;;;15.15;100.00;101357.63;4981596;28;20285;-75
2023/07/03 04:40:38;;;;;;;9.30;2.50;;;;;;;14.59;100.00;101285.41;4994867;28;20460;-75
2023/07/03 04:43:06;;;;;;;6.10;2.27;;;;;;;15.39;100.00;101390.38;4974839;28;20257;-75
2023/07/03 04:45:36;;;;;;;12.53;2.73;;;;;;;14.64;100.00;101296.41;4977116;28;20229;-75
2023/07/03 04:48:02;;;;;;;9.30;2.50;;;;;;;14.58;100.00;101264.88;4974064;28;20479;-75
2023/07/03 04:50:29;;;;;;;9.30;3.03;;;;;;;14.16;100.00;101202.31;4976846;28;20447;-74
2023/07/03 04:52:54;;;;;;;13.90;3.00;;;;;;;14.43;100.00;101264.25;4976268;28;20210;-74
2023/07/03 04:55:21;;;;;;;10.47;2.17;;;;;;;14.58;100.00;101264.00;4974691;28;20451;-75
2023/07/03 04:57:46;;;;;;;12.37;2.60;;;;;;;14.55;100.00;101259.91;4978747;28;20623;-75
2023/07/03 05:00:15;;;;;;;12.77;3.20;;;;;;;15.52;100.00;101411.06;4978994;28;20429;-74
2023/07/03 05:02:46;;;;;;;9.77;2.70;;;;;;;14.94;100.00;101303.09;4982032;28;20410;-75
2023/07/03 05:05:12;;;;;;;10.10;3.40;;;;;;;14.71;100.00;101266.66;4976224;28;20463;-74
2023/07/03 05:07:39;;;;;;;8.70;2.37;;;;;;;14.89;100.00;101298.34;4977216;28;20520;-74
2023/07/03 05:10:05;;;;;;;10.03;2.60;;;;;;;14.72;100.00;101235.91;4977638;28;20513;-74
2023/07/03 05:12:31;;;;;;;14.20;2.53;;;;;;;14.74;100.00;101241.09;4976300;28;20460;-73
2023/07/03 05:14:56;;;;;;;12.10;3.33;;;;;;;15.31;100.00;101329.28;4977437;28;20426;-75
2023/07/03 05:17:23;;;;;;;13.50;3.00;;;;;;;14.87;100.00;101251.84;4974826;28;20190;-74
2023/07/03 05:19:48;;;;;;;13.63;2.50;;;;;;;14.79;100.00;101252.91;4992032;28;20445;-81
2023/07/03 05:22:14;;;;;;;12.47;2.90;;;;;;;14.69;100.00;101242.59;4974817;28;20968;-74
2023/07/03 05:24:39;;;;;;;14.20;3.43;;;;;;;14.65;100.00;101218.94;4977964;28;20194;-74
2023/07/03 05:27:05;;;;;;;10.47;2.27;;;;;;;15.30;100.00;101333.03;4979836;28;20689;-75
2023/07/03 05:29:32;;;;;;;16.33;2.70;;;;;;;14.77;100.00;101237.97;4981735;28;20210;-74
2023/07/03 05:32:00;;;;;;;17.90;2.83;;;;;;;15.60;100.00;101392.69;4983047;28;20249;-74
2023/07/03 05:34:26;;;;;;;15.70;3.10;;;;;;;15.77;100.00;101398.44;4993216;28;20447;-75
2023/07/03 05:36:51;;;;;;;13.03;2.77;;;;;;;15.74;100.00;101395.34;4985432;28;20919;-75
2023/07/03 05:39:17;;;;;;;10.77;2.33;;;;;;;15.21;100.00;101293.78;4968004;28;20487;-74
2023/07/03 05:41:42;;;;;;;8.80;2.60;;;;;;;15.66;100.00;101388.31;4971647;28;20186;-76
2023/07/03 05:44:08;;;;;;;9.93;2.37;;;;;;;15.04;100.00;101288.09;4975391;28;20659;-74
2023/07/03 05:46:33;;;;;;;9.93;2.33;;;;;;;15.85;100.00;101428.97;4976550;28;20673;-76
2023/07/03 05:48:59;;;;;;;10.17;3.20;;;;;;;14.71;100.00;101233.44;4973638;28;20205;-75
2023/07/03 05:51:24;;;;;;;12.97;2.50;;;;;;;15.15;100.00;101287.38;4974407;28;20214;-74
2023/07/03 05:53:50;;;;;;;12.20;2.60;;;;;;;15.74;100.00;101385.38;4973173;28;20197;-75
2023/07/03 05:56:16;;;;;;;15.47;2.60;;;;;;;15.99;100.00;101427.81;4973202;28;20190;-79
2023/07/03 05:58:41;;;;;;;9.33;2.57;;;;;;;15.83;100.00;101396.75;4972632;28;20472;-74
2023/07/03 06:01:07;;;;;;;16.63;2.87;;;;;;;15.19;100.00;101316.66;4972421;28;21489;-74
2023/07/03 06:03:32;;;;;;;13.07;2.90;;;;;;;14.89;100.00;101261.34;4969651;28;20212;-75
2023/07/03 06:05:59;;;;;;;8.83;2.50;;;;;;;16.07;100.00;101440.25;4982383;28;20197;-74
2023/07/03 06:08:24;;;;;;;10.77;2.27;;;;;;;16.13;100.00;101456.44;4971594;28;20232;-74
2023/07/03 06:10:51;;;;;;;8.57;2.10;;;;;;;15.26;100.00;101339.91;4991285;28;20441;-75
2023/07/03 06:13:16;;;;;;;13.87;2.60;;;;;;;15.44;100.00;101374.28;4986063;28;20611;-74
2023/07/03 06:15:42;;;;;;;7.67;2.30;;;;;;;15.57;100.00;101382.31;4972099;28;20477;-74
2023/07/03 06:18:07;;;;;;;9.47;2.17;;;;;;;16.22;100.00;101506.53;4975510;28;20289;-74
2023/07/03 06:20:34;;;;;;;14.70;2.40;;;;;;;16.24;100.00;101501.72;4975217;28;20211;-74
2023/07/03 06:22:59;;;;;;;11.90;2.43;;;;;;;15.88;100.00;101477.22;4975424;28;20329;-74
2023/07/03 06:25:25;;;;;;;6.43;1.90;;;;;;;15.09;100.00;101377.41;4978855;28;20539;-78
2023/07/03 06:27:50;;;;;;;8.60;2.00;;;;;;;16.10;100.00;101510.16;4975667;28;20220;-75
2023/07/03 06:30:16;;;;;;;14.07;3.20;;;;;;;16.27;100.00;101525.66;4975584;28;20182;-75
2023/07/03 06:32:41;;;;;;;9.43;2.53;;;;;;;15.29;100.00;101382.72;4985937;28;20644;-77
2023/07/03 06:35:07;;;;;;;11.37;2.33;;;;;;;15.48;100.00;101385.53;4967630;28;20264;-75
2023/07/03 06:37:33;;;;;;;11.63;2.50;;;;;;;15.64;100.00;101430.13;4970171;28;20205;-75
2023/07/03 06:39:59;;;;;;;9.43;2.20;;;;;;;15.83;100.00;101450.84;4972676;28;20281;-74
2023/07/03 06:42:24;;;;;;;10.90;2.30;;;;;;;15.07;100.00;101375.97;4972018;28;20513;-75
2023/07/03 06:44:50;;;;;;;13.40;2.27;;;;;;;15.14;100.00;101403.78;4972197;28;20203;-77
2023/07/03 06:47:15;;;;;;;13.60;2.57;;;;;;;16.18;100.00;101569.44;4988200;28;20209;-75
2023/07/03 06:49:40;;;;;;;6.40;1.80;;;;;;;15.99;100.00;101515.22;4974360;28;20268;-74
2023/07/03 06:52:08;;;;;;;9.63;3.10;;;;;;;16.34;100.00;101590.56;4975620;28;20701;-72
2023/07/03 06:54:33;;;;;;;5.70;2.10;;;;;;;16.42;100.00;101595.72;4981824;28;21353;-75
2023/07/03 06:56:59;;;;;;;7.77;1.90;;;;;;;15.81;100.00;101507.84;4971773;28;20525;-75
2023/07/03 06:59:25;;;;;;;8.93;2.10;;;;;;;14.97;100.00;101352.13;4987077;28;20217;-74
2023/07/03 07:01:50;;;;;;;8.40;1.93;;;;;;;15.81;100.00;101372.59;4968592;28;20468;-75
2023/07/03 07:04:16;;;;;;;7.20;1.60;;;;;;;16.37;100.00;101170.50;4973752;28;20682;-75
2023/07/03 07:06:41;;;;;;;8.63;2.17;;;;;;;16.30;100.00;100964.06;4973717;28;20178;-76
2023/07/03 07:09:07;;;;;;;11.00;2.10;;;;;;;16.28;100.00;100833.56;4973769;28;20248;-75
2023/07/03 07:11:34;;;;;;;9.83;1.90;;;;;;;16.43;100.00;100823.09;4976131;28;20198;-75
2023/07/03 07:14:04;;;;;;;15.53;2.27;;;;;;;16.63;100.00;100813.72;4982835;28;20473;-77
2023/07/03 07:16:32;;;;;;;10.57;1.93;;;;;;;15.32;100.00;100576.09;4976233;28;20492;-75
2023/07/03 07:19:01;;;;;;;10.10;2.00;;;;;;;15.77;100.00;100605.22;4975730;28;20496;-75
2023/07/03 07:21:27;;;;;;;6.17;1.97;;;;;;;15.98;100.00;100634.31;4977200;28;20417;-75
2023/07/03 07:23:55;;;;;;;9.37;2.27;;;;;;;15.77;100.00;100584.41;4973949;28;20434;-78
2023/07/03 07:26:22;;;;;;;6.10;1.70;;;;;;;15.05;100.00;100535.25;4974542;28;20520;-75
2023/07/03 07:28:47;;;;;;;12.33;1.83;;;;;;;15.21;100.00;100998.44;4973925;28;20516;-78
2023/07/03 07:31:21;;;;;;;13.57;3.00;;;;;;;15.48;100.00;101555.84;4976229;28;20569;-79
2023/07/03 07:33:46;;;;;;;5.00;1.93;;;;;;;15.14;100.00;101214.66;4974584;28;20182;-79
2023/07/03 07:36:13;;;;;;;7.50;2.20;;;;;;;14.28;100.00;101008.19;4978356;28;20458;-78
2023/07/03 07:38:39;;;;;;;6.17;1.50;;;;;;;15.17;100.00;101143.13;4973927;28;20273;-76
2023/07/03 07:41:05;;;;;;;8.70;1.80;;;;;;;14.44;100.00;101055.44;4973888;28;20919;-75
2023/07/03 07:43:34;;;;;;;4.60;1.83;;;;;;;13.87;100.00;100971.75;4989807;28;20196;-79
2023/07/03 07:45:59;;;;;;;6.33;1.80;;;;;;;14.72;100.00;101041.50;4974137;28;20178;-78
2023/07/03 07:48:26;;;;;;;9.50;1.90;;;;;;;15.10;100.00;101108.06;4975666;28;20561;-78
2023/07/03 07:50:52;;;;;;;5.27;1.50;;;;;;;14.35;100.00;101056.72;4991108;28;20555;-79
2023/07/03 07:53:17;;;;;;;6.63;1.60;;;;;;;13.70;100.00;100930.19;4972954;28;20440;-77
2023/07/03 07:55:43;;;;;;;6.63;2.17;;;;;;;14.02;100.00;100957.97;4973264;28;20212;-75
2023/07/03 07:58:08;;;;;;;4.30;1.80;;;;;;;14.57;100.00;101049.94;4974171;28;20207;-75
2023/07/03 08:00:34;;;;;;;8.10;2.27;;;;;;;14.62;100.00;101022.28;4974291;28;20851;-77
2023/07/03 08:03:00;;;;;;;7.97;2.00;;;;;;;14.43;100.00;100921.50;4990457;28;20662;-76
2023/07/03 08:05:25;;;;;;;9.57;1.97;;;;;;;14.54;100.00;100953.22;4975155;28;20437;-76
2023/07/03 08:07:52;;;;;;;6.50;1.70;;;;;;;14.22;100.00;100936.25;4974869;28;20685;-76
2023/07/03 08:10:18;;;;;;;6.97;2.00;;;;;;;14.93;100.00;101051.09;4972897;28;20269;-77
2023/07/03 08:12:43;;;;;;;10.90;2.90;;;;;;;15.07;100.00;101087.75;4972878;28;20561;-78
2023/07/03 08:15:09;;;;;;;8.93;2.40;;;;;;;14.78;100.00;101015.50;4972960;28;20182;-77
2023/07/03 08:17:35;;;;;;;11.03;2.33;;;;;;;14.45;100.00;100935.63;4974342;28;20281;-76
2023/07/03 08:20:00;;;;;;;9.90;2.83;;;;;;;15.72;100.00;101108.06;4978197;28;20976;-76
2023/07/03 08:22:27;;;;;;;11.53;3.90;;;;;;;15.88;100.00;101179.66;4974630;28;20185;-76
2023/07/03 08:24:53;;;;;;;10.10;2.47;;;;;;;15.56;100.00;101071.59;4976760;28;20618;-76
2023/07/03 08:27:18;;;;;;;13.63;2.70;;;;;;;15.74;100.00;101152.78;4978111;28;20448;-77
2023/07/03 08:29:46;;;;;;;7.03;1.40;;;;;;;16.27;100.00;101194.59;4975769;28;20183;-77
2023/07/03 08:32:13;;;;;;;6.50;1.73;;;;;;;15.66;100.00;101101.66;4977358;28;20218;-77
2023/07/03 08:34:38;;;;;;;7.67;2.37;;;;;;;15.96;100.00;101195.59;4974351;28;20496;-76
2023/07/03 08:37:05;;;;;;;10.40;2.20;;;;;;;15.37;100.00;101109.47;4976128;28;20450;-76
2023/07/03 08:39:30;;;;;;;11.80;2.53;;;;;;;15.70;100.00;101194.81;4971836;28;20225;-76
2023/07/03 08:42:06;;;;;;;9.20;2.07;;;;;;;16.23;100.00;101240.25;4975986;28;20456;-76
2023/07/03 08:44:32;;;;;;;9.93;1.80;;;;;;;16.46;100.00;101374.94;4975366;28;20205;-77
2023/07/03 08:47:00;;;;;;;9.70;1.93;;;;;;;16.04;100.00;101312.47;4981911;28;20468;-76
2023/07/03 08:49:27;;;;;;;8.63;1.60;;;;;;;16.77;100.00;101467.13;4976603;28;20210;-76
2023/07/03 08:51:55;;;;;;;8.93;2.10;;;;;;;16.60;100.00;101435.16;4973635;28;20460;-76
2023/07/03 08:54:25;;;;;;;7.77;1.60;;;;;;;16.83;100.00;101532.06;4974915;28;20456;-76
2023/07/03 08:56:53;;;;;;;6.93;1.53;;;;;;;16.81;100.00;101641.75;4975588;28;20469;-80
2023/07/03 08:59:19;;;;;;;7.10;1.87;;;;;;;16.69;100.00;101669.50;4972222;28;20466;-79
2023/07/03 09:02:02;;;;;;;5.33;1.63;;;;;;;16.53;100.00;101628.56;4974084;28;20438;-76
2023/07/03 09:04:47;;;;;;;5.20;1.50;;;;;;;17.01;100.00;101666.78;4975764;28;20182;-75
2023/07/03 09:07:25;;;;;;;6.77;1.43;;;;;;;16.67;100.00;101592.22;4975379;28;20460;-80
2023/07/03 09:09:53;;;;;;;8.77;1.63;;;;;;;16.77;100.00;101663.00;4969988;28;20433;-76
2023/07/03 09:12:31;;;;;;;6.40;1.60;;;;;;;16.21;100.00;101601.50;4987902;28;20493;-77
2023/07/03 09:15:06;;;;;;;6.27;1.97;;;;;;;16.56;100.00;101663.34;4972836;28;20846;-76
2023/07/03 09:17:33;;;;;;;8.13;1.87;;;;;;;15.62;100.00;101514.16;4972377;28;20463;-76
2023/07/03 09:20:01;;;;;;;4.03;1.37;;;;;;;15.38;100.00;101481.41;4979563;28;20444;-75
2023/07/03 09:22:50;;;;;;;8.07;1.70;;;;;;;16.48;100.00;101651.69;4974176;28;20434;-74
2023/07/03 09:25:22;;;;;;;6.07;1.40;;;;;;;15.63;100.00;101515.84;4972700;28;21001;-76
2023/07/03 09:27:53;;;;;;;3.60;1.20;;;;;;;15.91;100.00;101528.19;4990026;28;20542;-77
2023/07/03 09:30:18;;;;;;;4.60;1.13;;;;;;;16.54;100.00;101549.81;4970534;28;20454;-76
2023/07/03 09:32:44;;;;;;;6.97;1.90;;;;;;;17.23;100.00;101591.28;4976011;28;20581;-76
2023/07/03 09:35:19;;;;;;;5.20;1.37;;;;;;;17.24;100.00;101443.88;4990285;28;20543;-76
2023/07/03 09:37:57;;;;;;;3.33;1.10;;;;;;;17.17;100.00;101181.00;4978751;28;20212;-76
2023/07/03 09:40:31;;;;;;;5.10;1.20;;;;;;;16.40;100.00;100910.19;4970929;28;20448;-76
2023/07/03 09:42:57;;;;;;;9.97;1.30;;;;;;;16.32;100.00;100774.38;4973008;28;20437;-76
2023/07/03 09:45:28;;;;;;;5.53;1.27;;;;;;;17.09;100.00;100810.06;4967408;28;20472;-80
2023/07/03 09:47:57;;;;;;;3.63;1.10;;;;;;;17.25;100.00;100783.25;4972692;28;20230;-76
2023/07/03 09:50:43;;;;;;;2.60;1.10;;;;;;;16.94;100.00;100668.88;4973868;28;20448;-76
2023/07/03 09:53:19;;;;;;;5.07;1.20;;;;;;;17.11;100.00;100712.25;4981960;28;20477;-77
2023/07/03 09:55:50;;;;;;;6.97;1.60;;;;;;;17.07;100.00;100708.41;4974992;28;20441;-73
2023/07/03 09:58:16;;;;;;;3.13;0.90;;;;;;;17.08;100.00;100713.56;4986809;28;20928;-76
2023/07/03 10:00:51;;;;;;;2.20;0.90;;;;;;;16.36;100.00;100605.00;4974579;28;20521;-77
2023/07/03 10:03:30;;;;;;;4.00;1.43;;;;;;;16.53;100.00;100687.09;4972665;28;20445;-77
2023/07/03 10:06:03;;;;;;;4.20;1.23;;;;;;;16.68;100.00;100713.63;4973378;28;20865;-78
2023/07/03 10:08:29;;;;;;;5.27;1.83;;;;;;;15.60;100.00;100553.75;4970887;28;20568;-75
2023/07/03 10:10:59;;;;;;;5.00;1.30;;;;;;;15.62;100.00;100527.28;4973297;28;20532;-76
2023/07/03 10:13:29;;;;;;;8.00;1.83;;;;;;;16.69;100.00;100726.94;4969646;28;20249;-73
2023/07/03 10:15:55;;;;;;;4.73;1.50;;;;;;;16.82;100.00;100687.09;4972171;28;20480;-74
2023/07/03 10:18:27;;;;;;;5.83;1.50;;;;;;;15.84;100.00;100489.63;4973657;28;21076;-76
2023/07/03 10:20:54;;;;;;;11.73;1.53;;;;;;;17.23;100.00;100723.03;4972135;28;20446;-75
2023/07/03 10:23:23;;;;;;;3.93;1.00;;;;;;;16.21;100.00;100583.91;4971436;28;20449;-76
2023/07/03 10:25:55;;;;;;;3.63;1.20;;;;;;;17.30;100.00;100710.97;4986162;28;24392;-73
2023/07/03 10:28:27;;;;;;;6.20;1.30;;;;;;;16.52;100.00;100616.94;4975291;28;20560;-75
2023/07/03 10:30:58;;;;;;;4.83;1.10;;;;;;;17.19;100.00;100714.56;4971134;28;20863;-75
2023/07/03 10:33:30;;;;;;;7.33;1.63;;;;;;;16.20;100.00;100552.47;4980225;28;20441;-74
2023/07/03 10:35:57;;;;;;;5.43;1.50;;;;;;;16.40;100.00;100661.16;4972705;28;20453;-75
2023/07/03 10:38:46;;;;;;;5.87;1.60;;;;;;;17.17;100.00;100725.66;4974020;28;20460;-74
2023/07/03 10:41:21;;;;;;;7.80;1.50;;;;;;;17.20;100.00;100720.81;4971551;28;20453;-77
2023/07/03 10:43:52;;;;;;;7.90;1.50;;;;;;;16.72;100.00;100664.16;4961258;28;20528;-75
2023/07/03 10:47:01;;;;;;;4.47;1.30;;;;;;;16.61;100.00;100683.19;4971191;28;21208;-76
2023/07/03 10:49:32;;;;;;;3.17;1.00;;;;;;;16.87;100.00;100735.97;4966914;28;20472;-75
2023/07/03 10:52:17;;;;;;;5.57;1.50;;;;;;;15.85;100.00;100583.19;4975049;28;20497;-74
2023/07/03 10:54:53;;;;;;;2.60;1.03;;;;;;;16.88;100.00;100740.31;4977235;28;20433;-77
2023/07/03 10:57:27;;;;;;;7.00;1.33;;;;;;;16.73;100.00;100743.53;4975673;28;20456;-79
2023/07/03 10:59:58;;;;;;;4.33;1.30;;;;;;;15.31;100.00;100572.59;4973923;28;20484;-76
2023/07/03 11:02:58;;;;;;;3.23;1.10;;;;;;;15.74;100.00;100605.72;4973903;28;20449;-74
2023/07/03 11:05:35;;;;;;;4.73;1.10;;;;;;;15.74;100.00;100600.31;4986061;28;20444;-77
2023/07/03 11:08:15;;;;;;;2.90;0.73;;;;;;;15.92;100.00;100631.75;4978761;28;20852;-75
2023/07/03 11:10:59;;;;;;;1.77;0.90;;;;;;;16.68;100.00;100749.66;4972227;28;20984;-74
2023/07/03 11:13:51;;;;;;;3.87;1.37;;;;;;;16.84;100.00;100755.41;4971605;28;20475;-73
2023/07/03 11:16:18;;;;;;;9.80;1.33;;;;;;;15.60;100.00;100559.16;4973736;28;20560;-75